Topton, North Carolina
Current Conditions -  °F | °C
As of 9:55 AM on Monday 24 Nov 2014 (Local Time) from KRHP Reporting Station
Overcast Overcast  
Wind Chill: 65°   Ceiling: 3200
Heat Index: 65°   Visibility: 10mi
Dew Point: 54°   Wind: 12mph
Humidity: 68%   Direction: 230°SW
Pressure: 29.78"   Gusts: NA
Location:  35.25°N, 83.7°W
Report Text: KRHP 241455Z AUTO 23010KT 10SM BKN032 OVC040 18/12 A2978 RMK AO2 T01810121
Loading
Personal Weather Stations






























Interactive Weather Map New forecast layout! Learn more

10-Day Weather Forecast

Advertisements
Track Severe Weather on mobile